Terminal Aerodrome Forecast
Issued by NWS Wilmington, OH

Current Version | Previous Version | Text Only | Print | Product List | Glossary On
Versions: 1 2 3 4 5 6 7 8 9 10 11 12 13 14 15 16 17 18 19 20 21 22 23 24 25
000 FTUS41 KILN 211100 TAFCVG TAF KCVG 211130Z 2112/2218 32008KT P6SM BKN060 FM211500 32011KT P6SM OVC035 FM211700 33011G19KT P6SM OVC035 FM212200 34008KT P6SM OVC035 FM220600 36006KT P6SM OVC025 FM221500 36007KT P6SM SCT025=

USA.gov is the U.S. government's official web portal to all federal, state and local government web resources and services.